Time;durP1;ratioP1;P1;durP2;ratioP2;P2;SDS_P1;SDS_P2;PMS_P1;PMS_P2;Temp;Humidity;BMP_temperature;BMP_pressure;BME280_temperature;BME280_humidity;BME280_pressure;Samples;Min_cycle;Max_cycle;Signal;HPM_P1;HPM_P2
2023/07/09 00:00:47;;;;;;;3.67;3.37;;;17.70;99.90;;;;;;4983117;28;20434;-69
2023/07/09 00:03:13;;;;;;;4.23;3.70;;;17.70;99.90;;;;;;4986433;28;20524;-73
2023/07/09 00:05:49;;;;;;;;;;;;;;;;;;;;;
2023/07/09 00:08:30;;;;;;;9.07;3.80;;;17.60;99.90;;;;;;5085427;28;20428;-72
2023/07/09 00:10:56;;;;;;;4.37;4.00;;;17.50;99.90;;;;;;5062572;28;20471;-68
2023/07/09 00:13:27;;;;;;;4.00;3.70;;;17.40;99.90;;;;;;5076726;28;21187;-69
2023/07/09 00:16:01;;;;;;;4.40;3.97;;;17.40;99.90;;;;;;5083456;28;20528;-68
2023/07/09 00:18:27;;;;;;;5.70;3.73;;;17.30;99.90;;;;;;5062607;28;20447;-69
2023/07/09 00:20:53;;;;;;;3.87;3.57;;;17.30;99.90;;;;;;5089150;28;20495;-70
2023/07/09 00:23:22;;;;;;;6.17;4.07;;;17.30;99.90;;;;;;5072332;28;20486;-68
2023/07/09 00:25:48;;;;;;;3.73;3.33;;;17.20;99.90;;;;;;5074626;28;20431;-72
2023/07/09 00:28:17;;;;;;;3.83;3.53;;;17.10;99.90;;;;;;5071711;28;20432;-68
2023/07/09 00:30:47;;;;;;;3.97;3.60;;;17.10;99.90;;;;;;5071852;28;20440;-69
2023/07/09 00:33:16;;;;;;;4.20;3.80;;;17.10;99.90;;;;;;5074610;28;20425;-68
2023/07/09 00:35:44;;;;;;;3.77;3.40;;;17.10;99.90;;;;;;5089204;28;20480;-68
2023/07/09 00:39:04;;;;;;;3.53;3.20;;;17.00;99.90;;;;;;5077947;28;20459;-73
2023/07/09 00:41:17;;;;;;;5.17;3.63;;;17.00;99.90;;;;;;5069613;28;20856;-70
2023/07/09 00:43:43;;;;;;;4.03;3.70;;;17.00;99.90;;;;;;5073548;28;20947;-72
2023/07/09 00:46:23;;;;;;;4.80;4.30;;;16.90;99.90;;;;;;5077010;28;20456;-72
2023/07/09 00:48:59;;;;;;;4.77;3.27;;;16.90;99.90;;;;;;5072066;28;20458;-68
2023/07/09 00:51:27;;;;;;;5.20;4.00;;;16.90;99.90;;;;;;5075773;28;20462;-72
2023/07/09 00:53:58;;;;;;;4.03;3.23;;;16.80;99.90;;;;;;5091138;28;20451;-72
2023/07/09 00:56:53;;;;;;;5.07;3.17;;;16.80;99.90;;;;;;5073858;28;20514;-69
2023/07/09 00:59:23;;;;;;;3.50;3.20;;;16.70;99.90;;;;;;5084994;28;20432;-73
2023/07/09 01:01:54;;;;;;;10.73;3.93;;;16.70;99.90;;;;;;5076429;28;20443;-73
2023/07/09 01:04:23;;;;;;;4.43;4.03;;;16.70;99.90;;;;;;5075900;28;20420;-72
2023/07/09 01:07:45;;;;;;;;;;;;;;;;;;;;;
2023/07/09 01:10:23;;;;;;;;;;;;;;;;;;;;;
2023/07/09 01:12:50;;;;;;;4.00;3.60;;;16.60;99.90;;;;;;5088041;28;20410;-69
2023/07/09 01:15:22;;;;;;;6.10;3.57;;;16.50;99.90;;;;;;5082324;28;20428;-68
2023/07/09 01:17:52;;;;;;;7.40;4.20;;;16.50;99.90;;;;;;5057891;28;20542;-71
2023/07/09 01:20:20;;;;;;;4.67;3.53;;;16.50;99.90;;;;;;5057346;28;20447;-67
2023/07/09 01:22:50;;;;;;;5.77;4.40;;;16.40;99.90;;;;;;5075849;28;20492;-72
2023/07/09 01:25:35;;;;;;;4.77;4.27;;;16.40;99.90;;;;;;5075629;28;20424;-72
2023/07/09 01:28:01;;;;;;;4.40;4.00;;;16.40;99.90;;;;;;5076750;28;20424;-72
2023/07/09 01:30:35;;;;;;;4.33;3.93;;;16.30;99.90;;;;;;5076885;28;20424;-69
2023/07/09 01:33:01;;;;;;;5.13;4.63;;;16.30;99.90;;;;;;5085214;28;20463;-68
2023/07/09 01:36:00;;;;;;;3.70;3.40;;;16.30;99.90;;;;;;5094220;28;20920;-68
2023/07/09 01:38:30;;;;;;;4.70;4.13;;;16.30;99.90;;;;;;5047281;28;20475;-72
2023/07/09 01:41:46;;;;;;;3.93;3.47;;;16.30;99.90;;;;;;5073771;28;20943;-72
2023/07/09 01:44:12;;;;;;;6.40;4.13;;;16.20;99.90;;;;;;5071604;28;20538;-67
2023/07/09 01:50:07;;;;;;;5.20;3.80;;;16.20;99.90;;;;;;5076034;28;20466;-72
2023/07/09 01:52:34;;;;;;;4.40;4.00;;;16.20;99.90;;;;;;5074498;28;20494;-73
2023/07/09 01:55:19;;;;;;;5.13;4.03;;;16.20;99.90;;;;;;5074201;28;20464;-67
2023/07/09 01:57:45;;;;;;;4.27;3.87;;;16.20;99.90;;;;;;5073540;28;20521;-72
2023/07/09 02:00:15;;;;;;;4.60;3.77;;;16.20;99.90;;;;;;5062790;28;20486;-68
2023/07/09 02:03:28;;;;;;;4.83;3.57;;;16.20;99.90;;;;;;5075432;28;20855;-69
2023/07/09 02:05:55;;;;;;;4.60;4.20;;;16.20;99.90;;;;;;5061301;28;20435;-72
2023/07/09 02:09:04;;;;;;;7.73;3.90;;;16.10;99.90;;;;;;5079983;28;20428;-72
2023/07/09 02:11:30;;;;;;;4.40;3.90;;;16.10;99.90;;;;;;5073531;28;20432;-73
2023/07/09 02:19:07;;;;;;;6.57;4.07;;;16.10;99.90;;;;;;5091364;22;20513;-66
2023/07/09 02:21:33;;;;;;;4.60;3.83;;;16.10;99.90;;;;;;5112701;28;20439;-74
2023/07/09 02:23:58;;;;;;;5.40;3.77;;;16.10;99.90;;;;;;5115384;28;20161;-74
2023/07/09 02:26:24;;;;;;;3.30;3.00;;;16.10;99.90;;;;;;5113468;28;20257;-71
2023/07/09 02:28:49;;;;;;;5.97;3.67;;;16.00;99.90;;;;;;5095307;28;20732;-74
2023/07/09 02:31:15;;;;;;;4.93;3.83;;;16.10;99.90;;;;;;5091339;28;20189;-74
2023/07/09 02:33:41;;;;;;;4.20;3.80;;;16.10;99.90;;;;;;5083085;28;20177;-65
2023/07/09 02:36:07;;;;;;;3.77;3.47;;;16.00;99.90;;;;;;5077791;28;20194;-65
2023/07/09 02:38:33;;;;;;;4.17;3.70;;;16.00;99.90;;;;;;5093551;28;20455;-65
2023/07/09 02:40:58;;;;;;;3.97;3.53;;;16.10;99.90;;;;;;5094621;28;20563;-74
2023/07/09 02:43:24;;;;;;;4.03;3.70;;;16.10;99.90;;;;;;5088185;28;20166;-74
2023/07/09 02:45:50;;;;;;;6.47;3.23;;;16.10;99.90;;;;;;5072690;28;20181;-74
2023/07/09 02:48:15;;;;;;;6.83;3.83;;;16.10;99.90;;;;;;5084967;28;20573;-65
2023/07/09 02:50:41;;;;;;;3.40;3.10;;;16.10;99.90;;;;;;5087057;28;20202;-74
2023/07/09 02:53:07;;;;;;;3.93;3.27;;;16.10;99.90;;;;;;5076518;28;20176;-65
2023/07/09 02:55:34;;;;;;;4.10;3.80;;;16.10;99.90;;;;;;5092160;28;20181;-74
2023/07/09 02:58:00;;;;;;;4.50;4.10;;;16.10;99.90;;;;;;5090786;28;20272;-65
2023/07/09 03:00:26;;;;;;;5.37;3.17;;;16.10;99.90;;;;;;5090993;28;20420;-74
2023/07/09 03:02:52;;;;;;;3.80;3.40;;;16.00;99.90;;;;;;5075262;28;20511;-67
2023/07/09 03:05:17;;;;;;;3.97;3.57;;;16.10;99.90;;;;;;5092428;28;20195;-65
2023/07/09 03:07:43;;;;;;;5.03;3.40;;;16.10;99.90;;;;;;5073640;28;20273;-74
2023/07/09 03:10:09;;;;;;;23.80;13.33;;;16.10;99.90;;;;;;5059053;28;20177;-65
2023/07/09 03:12:34;;;;;;;11.43;9.07;;;16.10;99.90;;;;;;5073620;28;20166;-74
2023/07/09 03:15:00;;;;;;;24.77;14.97;;;16.10;99.90;;;;;;5055502;28;20408;-65
2023/07/09 03:17:26;;;;;;;14.77;10.33;;;16.10;99.90;;;;;;5054387;28;20238;-74
2023/07/09 03:19:51;;;;;;;10.33;8.87;;;16.10;99.90;;;;;;5073329;28;20661;-65
2023/07/09 03:22:17;;;;;;;10.63;7.57;;;16.00;99.90;;;;;;5073693;28;20585;-65
2023/07/09 03:24:43;;;;;;;7.20;6.20;;;16.00;99.90;;;;;;5073606;28;20522;-74
2023/07/09 03:27:09;;;;;;;6.17;5.40;;;16.00;99.90;;;;;;5072360;28;20233;-66
2023/07/09 03:29:34;;;;;;;7.90;5.57;;;16.00;99.90;;;;;;5073439;28;20170;-65
2023/07/09 03:32:00;;;;;;;6.20;5.60;;;16.00;99.90;;;;;;5088110;28;20706;-74
2023/07/09 03:34:26;;;;;;;5.80;5.30;;;16.00;99.90;;;;;;5091169;28;20312;-74
2023/07/09 03:36:51;;;;;;;5.33;4.37;;;16.00;99.90;;;;;;5074930;28;20206;-66
2023/07/09 03:39:17;;;;;;;5.30;4.00;;;16.00;99.90;;;;;;5072983;28;20522;-66
2023/07/09 03:41:43;;;;;;;4.90;3.90;;;16.00;99.90;;;;;;5092692;28;20173;-74
2023/07/09 03:44:08;;;;;;;4.10;3.50;;;16.00;99.90;;;;;;5092537;28;20170;-65
2023/07/09 03:46:34;;;;;;;3.60;3.27;;;16.00;99.90;;;;;;5091704;28;20197;-74
2023/07/09 03:49:00;;;;;;;4.70;3.90;;;16.10;99.90;;;;;;5078758;28;20573;-65
2023/07/09 03:51:25;;;;;;;3.80;3.50;;;16.10;99.90;;;;;;5088484;28;20173;-65
2023/07/09 03:53:51;;;;;;;4.70;4.00;;;16.10;99.90;;;;;;5076582;28;20646;-65
2023/07/09 03:56:17;;;;;;;3.70;3.40;;;16.10;99.90;;;;;;5071806;28;20166;-65
2023/07/09 03:58:43;;;;;;;6.50;3.97;;;16.20;99.90;;;;;;5073068;28;20281;-74
2023/07/09 04:01:08;;;;;;;3.77;3.47;;;16.30;99.90;;;;;;5074348;28;20253;-73
2023/07/09 04:03:34;;;;;;;3.63;3.43;;;16.30;99.90;;;;;;5085513;28;20207;-65
2023/07/09 04:06:00;;;;;;;3.50;3.20;;;16.30;99.90;;;;;;5090735;28;20252;-66
2023/07/09 04:08:26;;;;;;;4.17;3.87;;;16.40;99.90;;;;;;5071238;28;20248;-74
2023/07/09 04:10:56;;;;;;;5.73;3.40;;;16.40;99.90;;;;;;5093122;28;20193;-69
2023/07/09 04:13:22;;;;;;;4.90;3.53;;;16.40;99.90;;;;;;5070681;28;20173;-66
2023/07/09 04:15:48;;;;;;;4.53;4.23;;;16.50;99.90;;;;;;5092350;28;20384;-65
2023/07/09 04:18:13;;;;;;;3.30;3.10;;;16.60;99.90;;;;;;5072907;28;20580;-74
2023/07/09 04:20:39;;;;;;;3.63;3.30;;;16.60;99.90;;;;;;5078666;28;20173;-66
2023/07/09 04:23:06;;;;;;;3.80;3.50;;;16.70;99.90;;;;;;5085783;28;20537;-74
2023/07/09 04:25:32;;;;;;;4.63;3.37;;;16.80;99.90;;;;;;5088061;28;20185;-66
2023/07/09 04:27:59;;;;;;;5.87;3.63;;;16.90;99.90;;;;;;5075780;28;20946;-65
2023/07/09 04:30:24;;;;;;;3.90;3.40;;;17.00;99.90;;;;;;5093281;28;20162;-65
2023/07/09 04:32:50;;;;;;;3.50;3.10;;;17.00;99.90;;;;;;5083132;28;20791;-66
2023/07/09 04:35:16;;;;;;;3.47;3.17;;;17.10;99.90;;;;;;5086329;28;20182;-65
2023/07/09 04:37:42;;;;;;;8.43;3.60;;;17.10;99.90;;;;;;5089335;28;20234;-75
2023/07/09 04:40:13;;;;;;;4.10;3.30;;;17.10;99.90;;;;;;5087004;28;20430;-75
2023/07/09 04:42:39;;;;;;;3.17;2.97;;;17.20;99.90;;;;;;5077690;28;20399;-75
2023/07/09 04:45:06;;;;;;;3.50;3.20;;;17.30;99.90;;;;;;5096783;28;20424;-66
2023/07/09 04:47:32;;;;;;;4.43;3.60;;;17.40;99.90;;;;;;5059469;28;20859;-66
2023/07/09 04:49:57;;;;;;;7.70;3.33;;;17.40;99.90;;;;;;5095793;28;20396;-74
2023/07/09 04:52:23;;;;;;;4.00;3.40;;;17.50;99.90;;;;;;5091421;28;20633;-72
2023/07/09 04:54:50;;;;;;;2.70;2.50;;;17.60;99.90;;;;;;5077256;28;20224;-63
2023/07/09 04:57:16;;;;;;;3.50;3.20;;;17.60;99.90;;;;;;5086494;28;20209;-73
2023/07/09 04:59:42;;;;;;;2.93;2.73;;;17.70;99.90;;;;;;5090301;28;20426;-72
2023/07/09 05:02:08;;;;;;;5.00;3.60;;;17.70;99.90;;;;;;5088434;28;20432;-63
2023/07/09 05:04:34;;;;;;;6.50;3.63;;;17.70;99.90;;;;;;5093999;28;20177;-72
2023/07/09 05:06:59;;;;;;;6.63;3.50;;;17.70;99.90;;;;;;5095531;28;20189;-63
2023/07/09 05:09:25;;;;;;;3.77;3.43;;;17.80;99.90;;;;;;5092456;28;20170;-63
2023/07/09 05:11:51;;;;;;;3.47;3.27;;;17.80;99.90;;;;;;5077624;28;20170;-66
2023/07/09 05:14:17;;;;;;;3.63;3.20;;;17.80;99.90;;;;;;5075903;28;20772;-72
2023/07/09 05:16:44;;;;;;;4.37;2.97;;;17.90;99.90;;;;;;5073940;28;20661;-63
2023/07/09 05:19:09;;;;;;;3.20;3.00;;;17.90;99.90;;;;;;5075935;28;20995;-73
2023/07/09 05:21:35;;;;;;;3.23;2.50;;;18.00;99.90;;;;;;5075797;28;20488;-63
2023/07/09 05:24:01;;;;;;;6.83;3.50;;;18.00;99.90;;;;;;5075633;28;20174;-63
2023/07/09 05:26:27;;;;;;;4.83;2.80;;;18.10;99.90;;;;;;5074981;28;20518;-73
2023/07/09 05:28:56;;;;;;;4.07;3.43;;;18.20;99.90;;;;;;5075774;28;20435;-63
2023/07/09 05:31:22;;;;;;;7.10;2.97;;;18.20;99.90;;;;;;5091154;28;20235;-72
2023/07/09 05:33:48;;;;;;;3.53;3.13;;;18.20;99.90;;;;;;5079043;28;20808;-60
2023/07/09 05:36:15;;;;;;;6.87;3.30;;;18.20;99.90;;;;;;5077525;28;20458;-68
2023/07/09 05:38:43;;;;;;;3.57;3.27;;;18.30;99.90;;;;;;5055330;28;20683;-60
2023/07/09 05:41:09;;;;;;;2.87;2.63;;;18.40;99.90;;;;;;5044507;28;20401;-68
2023/07/09 05:43:34;;;;;;;3.27;2.97;;;18.40;99.90;;;;;;5075048;28;20397;-68
2023/07/09 05:46:03;;;;;;;4.27;3.77;;;18.50;99.90;;;;;;5074490;28;21138;-60
2023/07/09 05:48:28;;;;;;;4.53;3.03;;;18.60;99.90;;;;;;5075172;28;20237;-67
2023/07/09 05:50:54;;;;;;;3.23;2.87;;;18.60;99.90;;;;;;5074711;28;20439;-67
2023/07/09 05:53:21;;;;;;;3.37;3.10;;;18.60;99.90;;;;;;5093782;28;20307;-60
2023/07/09 05:55:46;;;;;;;4.60;3.50;;;18.70;99.90;;;;;;5092237;28;20439;-60
2023/07/09 05:58:12;;;;;;;3.23;2.93;;;18.70;99.90;;;;;;5093813;28;20474;-68
2023/07/09 06:00:39;;;;;;;2.90;2.70;;;18.70;99.90;;;;;;5088280;28;20170;-68
2023/07/09 06:03:07;;;;;;;3.70;2.80;;;18.80;99.90;;;;;;5085407;28;20170;-60
2023/07/09 06:05:33;;;;;;;3.03;2.83;;;18.70;99.90;;;;;;5073676;28;20432;-69
2023/07/09 06:07:59;;;;;;;4.27;2.70;;;18.80;99.90;;;;;;5071353;28;20463;-60
2023/07/09 06:10:25;;;;;;;5.93;3.00;;;18.90;99.90;;;;;;5073285;28;20437;-61
2023/07/09 06:12:51;;;;;;;4.87;2.97;;;18.90;99.90;;;;;;5074332;28;20252;-60
2023/07/09 06:15:17;;;;;;;3.33;3.13;;;19.10;99.90;;;;;;5074703;28;20443;-60
2023/07/09 06:17:42;;;;;;;3.07;2.80;;;19.20;99.90;;;;;;5073332;28;20198;-60
2023/07/09 06:20:09;;;;;;;3.50;3.20;;;19.30;99.90;;;;;;5074294;28;20178;-68
2023/07/09 06:22:34;;;;;;;3.60;3.30;;;19.40;99.90;;;;;;5073411;28;20186;-68
2023/07/09 06:25:00;;;;;;;3.57;3.23;;;19.40;99.90;;;;;;5073316;28;20490;-69
2023/07/09 06:27:26;;;;;;;3.27;2.97;;;19.50;99.90;;;;;;5073341;28;20700;-68
2023/07/09 06:29:52;;;;;;;4.77;3.30;;;19.60;99.90;;;;;;5074033;28;20535;-69
2023/07/09 06:32:18;;;;;;;2.70;2.50;;;19.80;99.90;;;;;;5074125;28;20400;-68
2023/07/09 06:34:44;;;;;;;4.13;2.73;;;19.90;99.90;;;;;;5073108;28;20599;-63
2023/07/09 06:37:10;;;;;;;4.63;2.93;;;20.00;99.90;;;;;;5074950;28;20225;-67
2023/07/09 06:39:36;;;;;;;4.10;3.00;;;20.10;99.90;;;;;;5069889;28;20417;-60
2023/07/09 06:42:02;;;;;;;3.03;2.83;;;20.20;99.90;;;;;;5065687;28;20212;-67
2023/07/09 06:44:28;;;;;;;4.57;3.20;;;20.30;99.90;;;;;;5073841;28;20196;-69
2023/07/09 06:46:53;;;;;;;3.33;3.03;;;20.40;99.90;;;;;;5072801;28;20190;-60
2023/07/09 06:49:19;;;;;;;3.43;3.10;;;20.60;99.90;;;;;;5073614;28;20170;-61
2023/07/09 06:51:45;;;;;;;5.70;3.17;;;20.70;99.90;;;;;;5073205;28;20545;-60
2023/07/09 06:54:12;;;;;;;2.83;2.63;;;20.70;99.90;;;;;;5069767;28;20183;-69
2023/07/09 06:56:38;;;;;;;5.20;2.43;;;20.90;99.90;;;;;;5072525;28;20166;-60
2023/07/09 06:59:04;;;;;;;4.60;2.70;;;20.90;99.90;;;;;;5072594;28;20952;-66
2023/07/09 07:01:29;;;;;;;6.20;3.10;;;21.00;99.90;;;;;;5073542;28;20245;-63
2023/07/09 07:03:55;;;;;;;4.23;3.57;;;21.10;99.90;;;;;;5067745;28;20178;-63
2023/07/09 07:06:21;;;;;;;3.30;3.00;;;21.30;99.90;;;;;;5034293;28;20843;-63
2023/07/09 07:08:46;;;;;;;4.20;3.53;;;21.40;99.90;;;;;;5065038;28;20202;-64
2023/07/09 07:11:12;;;;;;;3.13;2.90;;;21.50;99.90;;;;;;5073514;28;20213;-73
2023/07/09 07:13:40;;;;;;;3.77;3.47;;;21.50;99.90;;;;;;5072587;28;20197;-64
2023/07/09 07:16:09;;;;;;;3.90;2.77;;;21.60;99.90;;;;;;5072479;28;20174;-66
2023/07/09 07:18:35;;;;;;;7.13;3.27;;;21.80;99.90;;;;;;5073129;28;20464;-64
2023/07/09 07:21:01;;;;;;;5.17;4.77;;;21.90;99.90;;;;;;5073209;28;20407;-73
2023/07/09 07:23:27;;;;;;;5.67;2.90;;;22.00;99.90;;;;;;5072316;28;20451;-64
2023/07/09 07:25:54;;;;;;;4.80;2.83;;;22.20;99.90;;;;;;5054463;28;20439;-64
2023/07/09 07:28:20;;;;;;;7.97;3.40;;;22.30;99.90;;;;;;5073119;28;20431;-74
2023/07/09 07:30:46;;;;;;;3.27;3.07;;;22.40;99.90;;;;;;5073177;28;20828;-64
2023/07/09 07:33:14;;;;;;;4.33;3.23;;;22.60;99.90;;;;;;5073152;28;20440;-63
2023/07/09 07:35:39;;;;;;;4.97;3.53;;;22.60;99.90;;;;;;5072737;28;20181;-68
2023/07/09 07:38:05;;;;;;;2.77;2.57;;;22.80;99.90;;;;;;5053838;28;20517;-74
2023/07/09 07:40:32;;;;;;;2.93;2.73;;;22.90;99.90;;;;;;5055238;28;20256;-63
2023/07/09 07:42:57;;;;;;;3.50;3.20;;;23.00;99.90;;;;;;5072999;28;20618;-74
2023/07/09 07:45:23;;;;;;;3.60;3.30;;;23.00;99.90;;;;;;5072759;28;20396;-64
2023/07/09 07:47:51;;;;;;;3.50;3.23;;;23.20;99.90;;;;;;5072123;28;20190;-64
2023/07/09 07:50:18;;;;;;;4.43;3.03;;;23.30;99.90;;;;;;5073035;28;20661;-74
2023/07/09 07:52:43;;;;;;;3.23;2.93;;;23.40;99.90;;;;;;5071951;28;20523;-64
2023/07/09 07:55:10;;;;;;;3.60;3.30;;;23.50;99.90;;;;;;5055169;28;20440;-74
2023/07/09 07:57:35;;;;;;;5.03;2.90;;;23.70;99.90;;;;;;5071912;28;20243;-74
2023/07/09 08:00:01;;;;;;;3.43;3.13;;;23.80;99.90;;;;;;5072927;28;20405;-65
2023/07/09 08:02:27;;;;;;;4.77;2.93;;;23.90;99.90;;;;;;5072857;28;20622;-63
2023/07/09 08:04:53;;;;;;;3.67;3.10;;;24.00;99.90;;;;;;5054839;28;20420;-74
2023/07/09 08:07:19;;;;;;;4.23;2.80;;;24.20;99.90;;;;;;5073661;28;20194;-64
2023/07/09 08:09:46;;;;;;;3.17;2.87;;;24.30;99.90;;;;;;5076800;28;20507;-74
2023/07/09 08:12:13;;;;;;;2.80;2.60;;;24.40;99.90;;;;;;5076786;28;20408;-64
2023/07/09 08:14:40;;;;;;;3.03;2.73;;;24.50;99.90;;;;;;5076802;28;20411;-74
2023/07/09 08:17:06;;;;;;;3.30;3.00;;;24.50;99.90;;;;;;5075665;28;20472;-64
2023/07/09 08:19:32;;;;;;;3.50;3.20;;;24.60;99.90;;;;;;5076254;28;20424;-64
2023/07/09 08:21:58;;;;;;;2.97;2.77;;;24.70;99.90;;;;;;5076829;28;20432;-64
2023/07/09 08:24:24;;;;;;;2.63;2.43;;;24.80;99.90;;;;;;5075534;28;20510;-64
2023/07/09 08:26:49;;;;;;;3.50;2.90;;;24.90;99.90;;;;;;5074561;28;20200;-75
2023/07/09 08:29:16;;;;;;;2.90;2.70;;;25.00;99.90;;;;;;5076540;28;20163;-74
2023/07/09 08:31:41;;;;;;;3.50;3.20;;;25.10;99.90;;;;;;5075644;28;20170;-64
2023/07/09 08:34:08;;;;;;;2.40;2.20;;;25.20;99.90;;;;;;5076502;28;20397;-65
2023/07/09 08:36:34;;;;;;;3.07;2.73;;;25.30;99.90;;;;;;5075573;28;20193;-74
2023/07/09 08:39:03;;;;;;;5.53;2.83;;;25.40;99.90;;;;;;5074964;28;20831;-74
2023/07/09 08:41:42;;;;;;;5.40;2.93;;;25.40;99.90;;;;;;5076247;28;20439;-64
2023/07/09 08:44:16;;;;;;;6.20;2.90;;;25.50;99.90;;;;;;5076185;28;20408;-75
2023/07/09 08:46:53;;;;;;;3.43;3.20;;;25.60;99.90;;;;;;5075265;28;20446;-73
2023/07/09 08:49:27;;;;;;;6.83;3.00;;;25.70;99.90;;;;;;5076231;28;20412;-65
2023/07/09 08:51:54;;;;;;;3.27;3.00;;;25.80;99.90;;;;;;5076148;28;20503;-64
2023/07/09 08:54:28;;;;;;;2.87;2.57;;;25.90;99.90;;;;;;5074176;28;20519;-65
2023/07/09 08:56:59;;;;;;;3.53;3.20;;;26.00;99.90;;;;;;5074925;28;20472;-72
2023/07/09 08:59:26;;;;;;;4.23;3.20;;;26.30;99.90;;;;;;5075692;28;20428;-66
2023/07/09 09:01:57;;;;;;;3.30;3.00;;;26.40;99.90;;;;;;5075351;28;20471;-75
2023/07/09 09:04:33;;;;;;;3.20;2.87;;;26.60;99.90;;;;;;5075906;28;20492;-64
2023/07/09 09:07:18;;;;;;;2.97;2.77;;;26.70;99.90;;;;;;5074826;28;20419;-64
2023/07/09 09:09:58;;;;;;;3.57;3.13;;;26.80;99.90;;;;;;5075548;28;20424;-74
2023/07/09 09:12:38;;;;;;;3.80;3.00;;;27.00;99.90;;;;;;5075783;28;20400;-65
2023/07/09 09:15:17;;;;;;;5.07;3.10;;;27.10;99.90;;;;;;5075639;28;20471;-65
2023/07/09 09:17:43;;;;;;;3.27;2.97;;;27.20;99.90;;;;;;5073352;28;20496;-75
2023/07/09 09:20:16;;;;;;;3.20;2.83;;;27.40;99.90;;;;;;5075571;28;20492;-65
2023/07/09 09:22:58;;;;;;;3.07;2.87;;;27.60;99.90;;;;;;5074728;28;20505;-73
2023/07/09 09:25:29;;;;;;;3.13;2.90;;;27.80;99.90;;;;;;5075552;28;20407;-70
2023/07/09 09:27:55;;;;;;;4.37;3.03;;;28.00;99.90;;;;;;5073738;28;20420;-75
2023/07/09 09:30:24;;;;;;;4.53;3.77;;;28.20;99.90;;;;;;5075388;28;20463;-64
2023/07/09 09:32:54;;;;;;;5.10;2.97;;;28.30;99.90;;;;;;5072078;28;20436;-65
2023/07/09 09:35:24;;;;;;;4.15;3.10;;;28.40;99.90;;;;;;5074863;28;20413;-75
2023/07/09 09:37:53;;;;;;;3.57;3.30;;;28.50;99.90;;;;;;5073365;28;20255;-72
2023/07/09 09:40:23;;;;;;;3.37;3.10;;;28.50;99.90;;;;;;5075141;28;20396;-75
2023/07/09 09:42:56;;;;;;;3.30;3.10;;;28.40;99.90;;;;;;5074596;28;20776;-64
2023/07/09 09:48:00;;;;;;;3.50;3.20;;;28.30;99.90;;;;;;5311423;22;20541;-69
2023/07/09 09:50:31;;;;;;;3.40;3.20;;;28.20;99.90;;;;;;5075428;28;20397;-77
2023/07/09 09:52:59;;;;;;;3.67;3.27;;;28.20;99.90;;;;;;5074997;28;20896;-78
2023/07/09 09:55:30;;;;;;;4.80;3.10;;;28.20;99.90;;;;;;5074495;28;20912;-77
2023/07/09 09:57:56;;;;;;;3.93;3.40;;;28.20;99.90;;;;;;5057249;28;20448;-77
2023/07/09 10:00:25;;;;;;;5.93;3.40;;;28.20;99.90;;;;;;5067790;28;20483;-77
2023/07/09 10:02:57;;;;;;;3.83;3.53;;;28.30;99.90;;;;;;5055138;28;20444;-77
2023/07/09 10:05:38;;;;;;;3.40;3.10;;;28.40;99.90;;;;;;5054224;28;20405;-66
2023/07/09 10:08:25;;;;;;;3.33;3.10;;;28.40;99.90;;;;;;5054760;28;22441;-66
2023/07/09 10:10:53;;;;;;;3.60;3.10;;;28.30;99.90;;;;;;5055054;28;20951;-76
2023/07/09 10:13:35;;;;;;;4.77;3.87;;;28.30;99.90;;;;;;5054622;28;20429;-76
2023/07/09 10:16:29;;;;;;;3.57;3.30;;;28.30;99.90;;;;;;5053571;28;20972;-67
2023/07/09 10:19:12;;;;;;;4.60;4.30;;;28.30;99.90;;;;;;5045407;28;20461;-66
2023/07/09 10:22:14;;;;;;;3.63;3.33;;;28.40;99.90;;;;;;5054840;28;20393;-77
2023/07/09 10:24:56;;;;;;;3.33;3.00;;;28.50;99.90;;;;;;5071312;28;20938;-66
2023/07/09 10:27:45;;;;;;;3.97;3.63;;;28.60;99.90;;;;;;5056033;28;20832;-67
2023/07/09 10:30:20;;;;;;;3.80;2.90;;;28.70;99.90;;;;;;5053534;28;20405;-77
2023/07/09 10:33:08;;;;;;;3.70;2.97;;;28.90;99.90;;;;;;5054540;28;20393;-66
2023/07/09 10:36:01;;;;;;;4.77;3.80;;;29.00;99.90;;;;;;5053611;28;20931;-76
2023/07/09 10:38:47;;;;;;;6.03;3.10;;;28.90;99.90;;;;;;5054053;28;20457;-77
2023/07/09 10:41:14;;;;;;;3.27;3.07;;;29.00;99.90;;;;;;5054504;28;20402;-77
2023/07/09 10:43:57;;;;;;;3.80;3.50;;;29.00;99.90;;;;;;5054528;28;20480;-66
2023/07/09 10:46:31;;;;;;;3.93;3.53;;;29.20;99.90;;;;;;5053172;28;20413;-67
2023/07/09 10:48:58;;;;;;;4.67;3.30;;;29.10;99.90;;;;;;5054129;28;20421;-78
2023/07/09 10:51:41;;;;;;;5.80;4.10;;;29.10;99.90;;;;;;5053885;28;20401;-66
2023/07/09 10:54:15;;;;;;;7.67;4.00;;;29.10;99.90;;;;;;5053849;28;20444;-66
2023/07/09 10:56:44;;;;;;;4.07;3.60;;;29.20;99.90;;;;;;5052839;28;20456;-77
2023/07/09 10:59:22;;;;;;;3.73;3.43;;;29.40;99.90;;;;;;5054236;28;20754;-67
2023/07/09 11:01:51;;;;;;;3.40;3.10;;;29.50;99.90;;;;;;5054171;28;20419;-66
2023/07/09 11:04:51;;;;;;;3.57;3.37;;;29.60;99.90;;;;;;5054030;28;20439;-67
2023/07/09 11:07:24;;;;;;;4.27;3.90;;;29.70;99.90;;;;;;5034719;28;20436;-76
2023/07/09 11:09:54;;;;;;;5.80;3.70;;;29.80;99.90;;;;;;5054005;28;20405;-78
2023/07/09 11:12:38;;;;;;;6.83;3.80;;;29.90;99.90;;;;;;5053868;28;20401;-67
2023/07/09 11:15:16;;;;;;;5.10;4.60;;;29.80;99.90;;;;;;5052964;28;20405;-76
2023/07/09 11:17:46;;;;;;;4.53;4.00;;;29.90;99.90;;;;;;5053727;28;20449;-66
2023/07/09 11:20:34;;;;;;;3.93;3.63;;;30.00;99.90;;;;;;5053776;28;20425;-66
2023/07/09 11:23:07;;;;;;;4.87;3.50;;;30.00;99.90;;;;;;5063777;28;20510;-66
2023/07/09 11:25:44;;;;;;;4.60;4.30;;;30.10;99.90;;;;;;5072629;28;20441;-78
2023/07/09 11:28:10;;;;;;;6.57;3.93;;;30.20;99.90;;;;;;5073521;28;20416;-66
2023/07/09 11:31:04;;;;;;;8.23;4.07;;;30.30;99.90;;;;;;5073497;28;20401;-66
2023/07/09 11:33:30;;;;;;;3.60;3.40;;;30.40;99.90;;;;;;5073712;28;20459;-67
2023/07/09 11:36:11;;;;;;;4.30;3.97;;;30.50;99.90;;;;;;5072592;28;20404;-66
2023/07/09 11:38:46;;;;;;;4.27;3.97;;;30.60;99.90;;;;;;5054307;28;20212;-78
2023/07/09 11:41:36;;;;;;;4.07;3.77;;;30.70;99.90;;;;;;5053058;28;20399;-78
2023/07/09 11:44:12;;;;;;;5.23;4.13;;;30.90;99.90;;;;;;5035552;28;20921;-66
2023/07/09 11:47:00;;;;;;;6.37;3.90;;;31.30;99.90;;;;;;5034325;28;20787;-67
2023/07/09 11:49:32;;;;;;;6.60;3.90;;;31.70;99.90;;;;;;5053413;28;20416;-66
2023/07/09 11:52:03;;;;;;;5.07;4.07;;;32.20;99.90;;;;;;5052692;28;20420;-66
2023/07/09 11:54:35;;;;;;;4.00;3.57;;;32.50;99.90;;;;;;5052911;28;20385;-75
2023/07/09 11:57:02;;;;;;;4.97;4.57;;;33.10;99.90;;;;;;5052051;28;20422;-67
2023/07/09 11:59:28;;;;;;;4.30;4.00;;;33.40;99.90;;;;;;5053280;28;20433;-66
2023/07/09 12:01:55;;;;;;;4.37;3.97;;;33.60;99.90;;;;;;5053534;28;20435;-77
2023/07/09 12:04:32;;;;;;;6.80;4.40;;;33.70;99.90;;;;;;5053394;28;20393;-77
2023/07/09 12:07:00;;;;;;;6.90;4.40;;;33.80;99.90;;;;;;5051552;28;20788;-68
2023/07/09 12:09:32;;;;;;;4.07;3.77;;;33.80;99.90;;;;;;5052755;28;20416;-67
2023/07/09 12:11:58;;;;;;;4.20;3.67;;;33.50;99.90;;;;;;5055162;28;20900;-77
2023/07/09 12:14:24;;;;;;;4.70;4.30;;;33.10;99.90;;;;;;5040992;28;20516;-67
2023/07/09 12:16:52;;;;;;;4.67;4.17;;;32.40;99.90;;;;;;5034077;28;20191;-76
2023/07/09 12:19:21;;;;;;;6.10;4.40;;;32.10;99.90;;;;;;5053001;28;20398;-76
2023/07/09 12:21:55;;;;;;;4.03;3.73;;;31.60;99.90;;;;;;5052845;28;20889;-68
2023/07/09 12:24:24;;;;;;;4.20;3.93;;;31.30;99.90;;;;;;5052999;28;20401;-77
2023/07/09 12:26:59;;;;;;;5.00;4.00;;;31.10;99.90;;;;;;5052048;28;20925;-68
2023/07/09 12:29:45;;;;;;;5.10;4.30;;;31.00;99.90;;;;;;5052899;28;20424;-67
2023/07/09 12:32:14;;;;;;;4.33;4.03;;;30.90;99.90;;;;;;5052751;28;20933;-78
2023/07/09 12:34:40;;;;;;;5.07;4.67;;;30.90;99.90;;;;;;5052869;28;20401;-66
2023/07/09 12:37:12;;;;;;;4.30;3.90;;;30.90;99.90;;;;;;5051443;28;20825;-67
2023/07/09 12:39:38;;;;;;;4.90;4.40;;;30.80;99.90;;;;;;5052903;28;20198;-77
2023/07/09 12:42:04;;;;;;;5.60;4.40;;;30.90;99.90;;;;;;5052860;28;20393;-67
2023/07/09 12:44:35;;;;;;;4.47;4.10;;;30.80;99.90;;;;;;5056285;28;20609;-67
2023/07/09 12:47:02;;;;;;;4.53;4.13;;;30.80;99.90;;;;;;5036259;28;20215;-77
2023/07/09 12:49:30;;;;;;;5.17;4.50;;;30.80;99.90;;;;;;5052517;28;20405;-67
2023/07/09 12:52:01;;;;;;;7.97;4.90;;;30.80;99.90;;;;;;5053939;28;20441;-67
2023/07/09 12:54:30;;;;;;;4.70;4.30;;;30.80;99.90;;;;;;5075910;28;20412;-77
2023/07/09 12:56:59;;;;;;;3.87;3.67;;;30.90;99.90;;;;;;5075275;28;20412;-69
2023/07/09 12:59:28;;;;;;;5.10;4.47;;;30.90;99.90;;;;;;5076233;28;20975;-69
2023/07/09 13:02:14;;;;;;;4.63;4.33;;;30.90;99.90;;;;;;5075973;28;20466;-69
2023/07/09 13:04:40;;;;;;;6.13;4.60;;;30.90;99.90;;;;;;5076309;28;20446;-78
2023/07/09 13:07:24;;;;;;;4.80;4.30;;;30.90;99.90;;;;;;5049976;28;20441;-68
2023/07/09 13:09:51;;;;;;;4.93;4.53;;;30.90;99.90;;;;;;5038064;28;20519;-69
2023/07/09 13:12:18;;;;;;;4.27;3.70;;;31.00;99.90;;;;;;5062758;28;20428;-78
2023/07/09 13:14:53;;;;;;;4.23;3.73;;;31.00;99.90;;;;;;5058292;28;20415;-79
2023/07/09 13:17:18;;;;;;;3.90;3.60;;;31.10;99.90;;;;;;5075114;28;20435;-67